Time;durP1;ratioP1;P1;durP2;ratioP2;P2;SDS_P1;SDS_P2;PMS_P1;PMS_P2;Temp;Humidity;BMP_temperature;BMP_pressure;BME280_temperature;BME280_humidity;BME280_pressure;Samples;Min_cycle;Max_cycle;Signal;HPM_P1;HPM_P2
2022/08/21 00:00:57;;;;;;;13.63;10.20;;;17.40;99.90;;;;;;5094864;28;20069;-65
2022/08/21 00:03:24;;;;;;;15.77;11.05;;;17.40;99.90;;;;;;5115285;27;20127;-65
2022/08/21 00:05:52;;;;;;;12.25;9.55;;;17.40;99.90;;;;;;5095515;28;20437;-65
2022/08/21 00:08:22;;;;;;;14.05;9.73;;;17.40;99.90;;;;;;5106010;28;20411;-64
2022/08/21 00:10:50;;;;;;;12.95;9.85;;;17.30;99.90;;;;;;5097670;28;20068;-65
2022/08/21 00:13:19;;;;;;;12.82;9.38;;;17.30;99.90;;;;;;5111902;27;20540;-64
2022/08/21 00:15:48;;;;;;;16.35;10.65;;;17.30;99.90;;;;;;5099164;28;20043;-65
2022/08/21 00:18:17;;;;;;;15.77;10.15;;;17.30;99.90;;;;;;5113596;28;20573;-65
2022/08/21 00:20:46;;;;;;;15.60;11.27;;;17.20;99.90;;;;;;5111217;28;20100;-64
2022/08/21 00:23:14;;;;;;;12.70;9.15;;;17.20;99.90;;;;;;5120221;28;20083;-64
2022/08/21 00:25:43;;;;;;;13.23;9.43;;;17.20;99.90;;;;;;5126704;27;20081;-65
2022/08/21 00:28:12;;;;;;;12.45;9.48;;;17.20;99.90;;;;;;5130585;27;20043;-64
2022/08/21 00:30:41;;;;;;;13.80;9.68;;;17.20;99.90;;;;;;5117954;27;20046;-64
2022/08/21 00:33:09;;;;;;;14.40;10.45;;;17.20;99.90;;;;;;5101581;28;20047;-64
2022/08/21 00:35:39;;;;;;;12.13;9.32;;;17.20;99.90;;;;;;5113852;27;20041;-64
2022/08/21 00:38:08;;;;;;;13.15;8.57;;;17.20;99.90;;;;;;5106341;27;20056;-64
2022/08/21 00:40:41;;;;;;;13.20;9.55;;;17.20;99.90;;;;;;5118284;27;20084;-65
2022/08/21 00:43:11;;;;;;;14.13;9.65;;;17.10;99.90;;;;;;5115566;27;20542;-64
2022/08/21 00:45:39;;;;;;;14.15;10.27;;;17.10;99.90;;;;;;5111836;27;20055;-66
2022/08/21 00:48:07;;;;;;;13.30;9.50;;;17.10;99.90;;;;;;5118198;27;20048;-65
2022/08/21 00:50:39;;;;;;;15.90;9.90;;;17.10;99.90;;;;;;5092429;27;20513;-65
2022/08/21 00:53:10;;;;;;;17.10;11.15;;;17.10;99.90;;;;;;5125147;27;20050;-65
2022/08/21 00:55:37;;;;;;;14.00;9.45;;;17.10;99.90;;;;;;5128624;27;20039;-64
2022/08/21 00:58:09;;;;;;;12.93;9.85;;;17.10;99.90;;;;;;5112269;27;20054;-65
2022/08/21 01:00:39;;;;;;;16.38;10.88;;;17.10;99.90;;;;;;5116789;27;20043;-65
2022/08/21 01:03:11;;;;;;;16.55;10.27;;;17.10;99.90;;;;;;5111582;27;20058;-64
2022/08/21 01:05:41;;;;;;;12.80;9.68;;;17.00;99.90;;;;;;5095469;28;20079;-65
2022/08/21 01:08:10;;;;;;;12.85;9.40;;;17.00;99.90;;;;;;5104465;27;20048;-64
2022/08/21 01:10:37;;;;;;;14.63;10.35;;;17.00;99.90;;;;;;5103718;27;20035;-65
2022/08/21 01:13:08;;;;;;;13.73;10.65;;;17.00;99.90;;;;;;5112780;27;20556;-65
2022/08/21 01:15:41;;;;;;;12.27;8.85;;;17.00;99.90;;;;;;5116758;27;20502;-65
2022/08/21 01:18:11;;;;;;;12.95;9.48;;;16.90;99.90;;;;;;5123236;27;20552;-65
2022/08/21 01:20:43;;;;;;;15.25;9.88;;;16.90;99.90;;;;;;5117024;27;20051;-65
2022/08/21 01:23:12;;;;;;;14.48;9.45;;;16.90;99.90;;;;;;5115663;27;20055;-64
2022/08/21 01:25:39;;;;;;;13.45;8.82;;;16.80;99.90;;;;;;5122302;27;20051;-65
2022/08/21 01:28:12;;;;;;;11.65;8.38;;;16.80;99.90;;;;;;5118359;27;20074;-64
2022/08/21 01:30:43;;;;;;;12.32;9.07;;;16.80;99.90;;;;;;5122042;27;20077;-64
2022/08/21 01:33:10;;;;;;;12.77;9.50;;;16.80;99.90;;;;;;5119855;27;20106;-64
2022/08/21 01:35:38;;;;;;;14.98;10.02;;;16.80;99.90;;;;;;5092684;27;20077;-64
2022/08/21 01:38:05;;;;;;;15.15;10.23;;;16.80;99.90;;;;;;5117088;27;20043;-64
2022/08/21 01:40:33;;;;;;;16.38;9.85;;;16.80;99.90;;;;;;5095063;27;20047;-64
2022/08/21 01:43:00;;;;;;;14.45;9.25;;;16.70;99.90;;;;;;5117697;27;20091;-64
2022/08/21 01:45:27;;;;;;;12.48;9.00;;;16.70;99.90;;;;;;5110412;27;20058;-64
2022/08/21 01:47:55;;;;;;;15.77;9.93;;;16.70;99.90;;;;;;5130283;27;20406;-64
2022/08/21 01:50:22;;;;;;;12.23;9.02;;;16.70;99.90;;;;;;5130718;27;20053;-64
2022/08/21 01:52:50;;;;;;;13.45;9.10;;;16.60;99.90;;;;;;5103293;28;20042;-64
2022/08/21 01:55:19;;;;;;;12.40;8.80;;;16.60;99.90;;;;;;5114394;27;20047;-64
2022/08/21 01:57:47;;;;;;;12.57;9.25;;;16.60;99.90;;;;;;5124324;27;20143;-65
2022/08/21 02:00:17;;;;;;;12.65;8.73;;;16.60;99.90;;;;;;5124192;27;20046;-64
2022/08/21 02:02:45;;;;;;;14.10;9.02;;;16.60;99.90;;;;;;5121418;27;20047;-65
2022/08/21 02:05:12;;;;;;;11.82;8.55;;;16.60;99.90;;;;;;5105118;27;20538;-64
2022/08/21 02:07:46;;;;;;;12.35;8.00;;;16.60;99.90;;;;;;5101789;27;20059;-64
2022/08/21 02:10:19;;;;;;;12.38;8.82;;;16.50;99.90;;;;;;5099752;27;20047;-64
2022/08/21 02:12:47;;;;;;;10.32;7.88;;;16.60;99.90;;;;;;5106057;28;20455;-64
2022/08/21 02:15:15;;;;;;;11.00;8.50;;;16.60;99.90;;;;;;5094731;27;20501;-64
2022/08/21 02:17:54;;;;;;;10.63;7.25;;;16.60;99.90;;;;;;5112008;27;20797;-64
2022/08/21 02:20:29;;;;;;;10.70;7.75;;;16.60;99.90;;;;;;5105192;27;20047;-64
2022/08/21 02:22:56;;;;;;;9.32;7.47;;;16.60;99.90;;;;;;5109888;27;20040;-65
2022/08/21 02:25:25;;;;;;;9.80;7.20;;;16.60;99.90;;;;;;5116505;27;20359;-65
2022/08/21 02:27:53;;;;;;;10.10;6.88;;;16.60;99.90;;;;;;5113946;27;20498;-65
2022/08/21 02:30:25;;;;;;;10.02;6.78;;;16.60;99.90;;;;;;5113502;27;20131;-65
2022/08/21 02:32:53;;;;;;;8.52;6.72;;;16.70;99.90;;;;;;5118930;27;20505;-64
2022/08/21 02:35:21;;;;;;;8.05;6.30;;;16.70;99.90;;;;;;5109202;28;20558;-64
2022/08/21 02:37:57;;;;;;;8.73;6.63;;;16.70;99.90;;;;;;5105035;28;20036;-64
2022/08/21 02:40:28;;;;;;;9.80;7.28;;;16.80;99.90;;;;;;5110394;27;20066;-64
2022/08/21 02:42:56;;;;;;;9.48;7.22;;;16.70;99.90;;;;;;5113837;27;20126;-65
2022/08/21 02:45:25;;;;;;;9.35;6.63;;;16.80;99.90;;;;;;5120966;27;20506;-64
2022/08/21 02:47:55;;;;;;;9.00;6.60;;;16.70;99.90;;;;;;5113094;27;20115;-64
2022/08/21 02:50:31;;;;;;;8.13;6.47;;;16.80;99.90;;;;;;5102400;27;20048;-64
2022/08/21 02:52:59;;;;;;;10.40;7.43;;;16.70;99.90;;;;;;5096655;27;20036;-64
2022/08/21 02:55:29;;;;;;;9.68;7.22;;;16.70;99.90;;;;;;5115036;27;20428;-64
2022/08/21 02:57:57;;;;;;;10.77;7.63;;;16.70;99.90;;;;;;5101127;27;20045;-65
2022/08/21 03:00:29;;;;;;;12.60;7.90;;;16.50;99.90;;;;;;5116554;27;20047;-64
2022/08/21 03:02:58;;;;;;;12.30;8.90;;;16.40;99.90;;;;;;5125237;27;20043;-64
2022/08/21 03:05:27;;;;;;;11.43;7.65;;;16.40;99.90;;;;;;5111014;27;20124;-64
2022/08/21 03:07:55;;;;;;;11.85;8.13;;;16.30;99.90;;;;;;5089944;28;20047;-64
2022/08/21 03:10:22;;;;;;;13.38;9.32;;;16.20;99.90;;;;;;5097423;27;20064;-64
2022/08/21 03:12:50;;;;;;;15.77;10.00;;;16.10;99.90;;;;;;5106113;27;20035;-64
2022/08/21 03:15:21;;;;;;;13.15;8.88;;;16.00;99.90;;;;;;5120556;27;20046;-64
2022/08/21 03:17:49;;;;;;;11.68;8.68;;;16.00;99.90;;;;;;5122649;27;20074;-65
2022/08/21 03:20:19;;;;;;;13.23;9.40;;;15.90;99.90;;;;;;5122234;27;20054;-64
2022/08/21 03:22:46;;;;;;;12.60;9.23;;;15.90;99.90;;;;;;5097618;27;20040;-64
2022/08/21 03:25:21;;;;;;;12.10;8.90;;;15.80;99.90;;;;;;5120939;27;20121;-64
2022/08/21 03:28:09;;;;;;;15.05;9.43;;;15.80;99.90;;;;;;5122631;27;20052;-64
2022/08/21 03:30:41;;;;;;;11.73;8.35;;;15.80;99.90;;;;;;5110573;27;20489;-64
2022/08/21 03:33:08;;;;;;;14.27;8.88;;;15.70;99.90;;;;;;5098020;28;20050;-64
2022/08/21 03:35:46;;;;;;;13.25;8.75;;;15.70;99.90;;;;;;5127562;27;20528;-64
2022/08/21 03:38:14;;;;;;;13.70;9.73;;;15.70;99.90;;;;;;5107444;28;20036;-64
2022/08/21 03:40:43;;;;;;;13.48;9.90;;;15.70;99.90;;;;;;5108183;28;20035;-63
2022/08/21 03:43:11;;;;;;;16.40;9.65;;;15.70;99.90;;;;;;5110800;28;20047;-64
2022/08/21 03:45:39;;;;;;;11.65;9.02;;;15.70;99.90;;;;;;5098893;28;20533;-64
2022/08/21 03:48:07;;;;;;;12.88;9.15;;;15.70;99.90;;;;;;5118735;27;20044;-65
2022/08/21 03:50:39;;;;;;;14.30;9.63;;;15.80;99.90;;;;;;5119391;28;20039;-64
2022/08/21 03:53:09;;;;;;;15.35;11.40;;;15.80;99.90;;;;;;5119187;28;20393;-64
2022/08/21 03:55:47;;;;;;;15.93;9.65;;;15.90;99.90;;;;;;5107524;28;20565;-64
2022/08/21 03:58:16;;;;;;;14.50;9.47;;;15.90;99.90;;;;;;5098441;28;20043;-64
2022/08/21 04:00:49;;;;;;;14.98;9.65;;;15.90;99.90;;;;;;5111143;28;20819;-64
2022/08/21 04:03:18;;;;;;;19.63;12.30;;;16.00;99.90;;;;;;5120011;27;20054;-64
2022/08/21 04:05:46;;;;;;;19.60;12.38;;;16.10;99.90;;;;;;5096260;27;20118;-64
2022/08/21 04:08:17;;;;;;;22.48;12.32;;;16.00;99.90;;;;;;5117218;27;20123;-64
2022/08/21 04:10:47;;;;;;;22.85;13.00;;;16.10;99.90;;;;;;5120311;27;20368;-65
2022/08/21 04:13:14;;;;;;;18.20;11.48;;;16.10;99.90;;;;;;5106158;27;20770;-64
2022/08/21 04:15:42;;;;;;;20.00;11.18;;;16.10;99.90;;;;;;5106554;27;20048;-64
2022/08/21 04:18:10;;;;;;;21.70;12.32;;;16.10;99.90;;;;;;5118072;27;20509;-64
2022/08/21 04:20:38;;;;;;;19.35;11.43;;;16.10;99.90;;;;;;5113805;27;20489;-64
2022/08/21 04:23:06;;;;;;;48.15;13.73;;;16.10;99.90;;;;;;5107488;27;20043;-64
2022/08/21 04:25:34;;;;;;;33.58;12.77;;;16.10;99.90;;;;;;5123237;27;20226;-64
2022/08/21 04:28:02;;;;;;;44.80;14.43;;;16.00;99.90;;;;;;5121916;27;20056;-64
2022/08/21 04:30:30;;;;;;;28.20;14.27;;;16.00;99.90;;;;;;5119955;27;20120;-63
2022/08/21 04:32:58;;;;;;;24.48;13.82;;;16.00;99.90;;;;;;5099007;27;20525;-64
2022/08/21 04:35:27;;;;;;;24.83;14.25;;;16.10;99.90;;;;;;5106772;27;20044;-64
2022/08/21 04:37:55;;;;;;;24.73;14.68;;;16.10;99.90;;;;;;5097280;27;20072;-64
2022/08/21 04:40:25;;;;;;;35.83;12.55;;;16.20;99.90;;;;;;5107571;27;20635;-64
2022/08/21 04:42:58;;;;;;;22.80;14.02;;;16.20;99.90;;;;;;5123842;27;20564;-63
2022/08/21 04:45:32;;;;;;;25.20;14.30;;;16.30;99.90;;;;;;5124807;27;20048;-63
2022/08/21 04:48:02;;;;;;;24.13;14.38;;;16.30;99.90;;;;;;5106743;27;20123;-64
2022/08/21 04:50:40;;;;;;;25.35;13.45;;;16.30;99.90;;;;;;5109588;27;20501;-64
2022/08/21 04:53:15;;;;;;;25.48;13.20;;;16.30;99.90;;;;;;5111565;27;20043;-64
2022/08/21 04:55:44;;;;;;;26.65;12.93;;;16.40;99.90;;;;;;5119016;27;20036;-64
2022/08/21 04:58:14;;;;;;;23.70;13.32;;;16.40;99.90;;;;;;5129640;27;20501;-64
2022/08/21 05:00:41;;;;;;;26.08;13.77;;;16.40;99.90;;;;;;5117676;27;20130;-65
2022/08/21 05:03:11;;;;;;;38.65;13.77;;;16.40;99.90;;;;;;5122885;27;20055;-64
2022/08/21 05:05:39;;;;;;;23.77;13.32;;;16.50;99.90;;;;;;5111940;27;20098;-64
2022/08/21 05:08:09;;;;;;;59.38;13.13;;;16.50;99.90;;;;;;5106405;27;20497;-63
2022/08/21 05:10:36;;;;;;;60.92;12.20;;;16.50;99.90;;;;;;5110801;27;20134;-64
2022/08/21 05:13:05;;;;;;;48.70;12.93;;;16.40;99.90;;;;;;5112264;27;20458;-63
2022/08/21 05:15:33;;;;;;;50.35;13.60;;;16.40;99.90;;;;;;5121874;27;20443;-64
2022/08/21 05:18:00;;;;;;;43.67;12.93;;;16.40;99.90;;;;;;5095371;27;20035;-63
2022/08/21 05:20:28;;;;;;;158.10;15.85;;;16.30;99.90;;;;;;5109830;28;20043;-64
2022/08/21 05:22:55;;;;;;;164.32;14.32;;;16.30;99.90;;;;;;5109796;28;20054;-63
2022/08/21 05:25:23;;;;;;;40.53;11.52;;;16.20;99.90;;;;;;5117556;27;20071;-63
2022/08/21 05:27:50;;;;;;;13.80;9.15;;;16.30;99.90;;;;;;5120521;27;20047;-63
2022/08/21 05:30:20;;;;;;;75.07;10.88;;;16.30;99.90;;;;;;5128204;27;20055;-63
2022/08/21 05:32:47;;;;;;;29.70;9.80;;;16.30;99.90;;;;;;5122001;27;20518;-65
2022/08/21 05:35:15;;;;;;;56.33;10.75;;;16.30;99.90;;;;;;5115150;27;20036;-64
2022/08/21 05:37:42;;;;;;;16.20;8.60;;;16.40;99.90;;;;;;5122953;27;20050;-64
2022/08/21 05:40:10;;;;;;;14.18;9.23;;;16.40;99.90;;;;;;5124060;27;20202;-64
2022/08/21 05:42:53;;;;;;;13.70;8.90;;;16.40;99.90;;;;;;5104353;27;20051;-65
2022/08/21 05:45:23;;;;;;;13.40;8.00;;;16.60;99.90;;;;;;5106152;27;20093;-65
2022/08/21 05:48:10;;;;;;;13.30;9.30;;;16.70;99.90;;;;;;5090337;27;20212;-64
2022/08/21 05:50:38;;;;;;;12.27;9.00;;;16.80;99.90;;;;;;5106420;27;20090;-63
2022/08/21 05:53:06;;;;;;;12.45;9.80;;;16.80;99.90;;;;;;5102500;28;20851;-64
2022/08/21 05:55:36;;;;;;;15.73;10.68;;;17.00;99.90;;;;;;5106483;27;20047;-65
2022/08/21 05:58:11;;;;;;;149.05;13.65;;;17.10;99.90;;;;;;5109618;27;20123;-65
2022/08/21 06:00:38;;;;;;;19.35;11.00;;;17.00;99.90;;;;;;5109189;27;20043;-64
2022/08/21 06:03:12;;;;;;;16.33;10.30;;;17.00;99.90;;;;;;5115531;27;20077;-65
2022/08/21 06:05:39;;;;;;;116.82;12.82;;;17.10;99.90;;;;;;5093698;27;20042;-64
2022/08/21 06:08:06;;;;;;;15.65;9.48;;;17.10;99.90;;;;;;5122773;27;20058;-64
2022/08/21 06:10:33;;;;;;;16.73;10.13;;;17.00;99.90;;;;;;5113058;27;20035;-64
2022/08/21 06:13:01;;;;;;;11.60;9.23;;;17.10;99.90;;;;;;5107363;27;20031;-63
2022/08/21 06:15:28;;;;;;;14.32;8.60;;;17.20;99.90;;;;;;5099352;27;20126;-64
2022/08/21 06:17:56;;;;;;;18.05;9.80;;;17.20;99.90;;;;;;5095359;27;20066;-63
2022/08/21 06:20:23;;;;;;;16.70;10.50;;;17.30;99.90;;;;;;5100386;27;20047;-64
2022/08/21 06:22:50;;;;;;;13.32;9.88;;;17.40;99.90;;;;;;5103762;27;20043;-64
2022/08/21 06:25:18;;;;;;;14.55;10.68;;;17.50;99.90;;;;;;5113771;27;20040;-64
2022/08/21 06:27:46;;;;;;;30.17;11.95;;;17.50;99.90;;;;;;5109259;27;20489;-63
2022/08/21 06:30:14;;;;;;;16.23;9.63;;;17.50;99.90;;;;;;5109500;27;20048;-65
2022/08/21 06:32:41;;;;;;;11.93;8.85;;;17.50;99.90;;;;;;5121475;27;20138;-65
2022/08/21 06:35:08;;;;;;;12.30;9.70;;;17.60;99.90;;;;;;5123548;27;20042;-64
2022/08/21 06:37:36;;;;;;;14.25;9.30;;;17.70;99.90;;;;;;5108392;28;20063;-67
2022/08/21 06:40:05;;;;;;;14.80;10.70;;;17.70;99.90;;;;;;5120321;27;20043;-64
2022/08/21 06:42:39;;;;;;;12.13;9.38;;;17.70;99.90;;;;;;5101731;27;20122;-64
2022/08/21 06:45:09;;;;;;;12.73;9.45;;;17.60;99.90;;;;;;5123251;27;20464;-65
2022/08/21 06:47:37;;;;;;;16.85;9.63;;;17.70;99.90;;;;;;5124945;27;20068;-65
2022/08/21 06:50:07;;;;;;;15.48;10.60;;;17.70;99.90;;;;;;5125201;27;20500;-65
2022/08/21 06:52:38;;;;;;;33.22;10.82;;;17.90;99.90;;;;;;5119707;27;20115;-66
2022/08/21 06:55:08;;;;;;;13.30;9.73;;;17.90;99.90;;;;;;5128451;27;20038;-65
2022/08/21 06:57:36;;;;;;;13.23;9.98;;;18.00;99.90;;;;;;5118510;27;20060;-64
2022/08/21 07:00:06;;;;;;;15.70;10.18;;;18.20;99.90;;;;;;5111633;27;20047;-64
2022/08/21 07:02:33;;;;;;;14.77;9.93;;;18.50;99.90;;;;;;5115186;27;20540;-64
2022/08/21 07:05:01;;;;;;;12.45;9.38;;;18.50;99.90;;;;;;5095657;27;20502;-63
2022/08/21 07:07:44;;;;;;;13.27;10.05;;;18.50;99.90;;;;;;5107388;27;20059;-66
2022/08/21 07:10:12;;;;;;;13.02;9.05;;;18.50;99.90;;;;;;5116358;27;20485;-63
2022/08/21 07:12:50;;;;;;;11.98;8.93;;;18.70;99.90;;;;;;5104040;28;20490;-63
2022/08/21 07:15:29;;;;;;;12.50;9.45;;;18.90;99.90;;;;;;5098278;27;20044;-64
2022/08/21 07:17:58;;;;;;;13.00;9.75;;;18.60;99.90;;;;;;5103746;27;20055;-65
2022/08/21 07:20:27;;;;;;;12.82;9.90;;;18.70;99.90;;;;;;5111597;28;20044;-64
2022/08/21 07:22:58;;;;;;;14.40;11.30;;;18.90;99.90;;;;;;5102077;28;20579;-65
2022/08/21 07:25:26;;;;;;;15.65;10.90;;;18.90;99.90;;;;;;5111081;27;20048;-63
2022/08/21 07:27:53;;;;;;;17.70;12.05;;;18.70;99.90;;;;;;5097254;27;20044;-63
2022/08/21 07:30:21;;;;;;;21.52;12.48;;;18.80;99.90;;;;;;5105715;27;20478;-63
2022/08/21 07:32:49;;;;;;;17.50;12.85;;;18.80;99.90;;;;;;5111495;27;20028;-63
2022/08/21 07:35:18;;;;;;;16.90;12.02;;;18.90;99.90;;;;;;5094532;28;20439;-64
2022/08/21 07:37:46;;;;;;;17.65;12.65;;;18.60;99.90;;;;;;5120706;27;20570;-63
2022/08/21 07:40:13;;;;;;;14.48;11.60;;;18.70;99.90;;;;;;5102940;28;20153;-64
2022/08/21 07:42:43;;;;;;;16.55;13.00;;;18.80;99.90;;;;;;5123013;28;20043;-64
2022/08/21 07:45:13;;;;;;;15.35;11.90;;;18.80;99.90;;;;;;5109141;28;20747;-64
2022/08/21 07:47:40;;;;;;;13.73;11.20;;;19.00;99.90;;;;;;5102363;28;20510;-65
2022/08/21 07:50:11;;;;;;;19.35;13.02;;;19.10;99.90;;;;;;5100726;28;20050;-63
2022/08/21 07:52:40;;;;;;;15.85;11.50;;;19.10;99.90;;;;;;5104254;28;20074;-64
2022/08/21 07:55:15;;;;;;;17.65;13.88;;;18.90;99.90;;;;;;5110958;28;20512;-63
2022/08/21 07:57:42;;;;;;;21.40;15.43;;;19.00;99.90;;;;;;5121290;27;20039;-65
2022/08/21 08:00:17;;;;;;;21.08;15.27;;;19.10;99.90;;;;;;5124308;28;20046;-65
2022/08/21 08:02:49;;;;;;;16.85;14.07;;;19.20;99.90;;;;;;5114581;28;20115;-65
2022/08/21 08:05:19;;;;;;;16.95;14.32;;;19.20;99.90;;;;;;5102998;28;20044;-65
2022/08/21 08:07:47;;;;;;;14.23;12.02;;;19.10;99.90;;;;;;5114746;28;20123;-65
2022/08/21 08:10:15;;;;;;;16.02;13.00;;;19.20;99.90;;;;;;5110490;28;20485;-65
2022/08/21 08:12:44;;;;;;;15.48;13.45;;;19.40;99.90;;;;;;5097326;28;20518;-65
2022/08/21 08:15:17;;;;;;;18.10;14.75;;;19.80;99.90;;;;;;5109646;28;20046;-64
2022/08/21 08:17:44;;;;;;;20.35;14.95;;;19.90;99.90;;;;;;5103440;28;20131;-65
2022/08/21 08:20:13;;;;;;;16.52;12.27;;;19.80;99.90;;;;;;5116119;27;20925;-65
2022/08/21 08:22:41;;;;;;;17.75;12.90;;;19.80;99.90;;;;;;5101035;28;20044;-65
2022/08/21 08:25:10;;;;;;;16.73;13.32;;;19.80;99.90;;;;;;5104299;28;20116;-65
2022/08/21 08:27:38;;;;;;;15.73;13.15;;;19.80;99.90;;;;;;5103520;28;20067;-65
2022/08/21 08:30:08;;;;;;;17.17;13.77;;;20.10;99.90;;;;;;5117138;28;20072;-65
2022/08/21 08:32:36;;;;;;;14.52;12.18;;;20.10;99.90;;;;;;5119890;27;20486;-66
2022/08/21 08:35:05;;;;;;;15.35;12.43;;;20.30;99.90;;;;;;5105481;28;20577;-64
2022/08/21 08:37:33;;;;;;;15.55;13.02;;;20.20;99.90;;;;;;5101379;28;20075;-63
2022/08/21 08:40:01;;;;;;;15.98;13.05;;;20.30;99.90;;;;;;5102133;28;20044;-64
2022/08/21 08:42:33;;;;;;;16.10;13.32;;;20.40;99.90;;;;;;5115642;28;20494;-64
2022/08/21 08:45:08;;;;;;;16.98;14.35;;;20.40;99.90;;;;;;5099410;28;20047;-63
2022/08/21 08:47:39;;;;;;;17.45;14.70;;;20.00;99.90;;;;;;5103485;27;20063;-63
2022/08/21 08:50:15;;;;;;;15.35;13.05;;;20.20;99.90;;;;;;5104264;27;20184;-63
2022/08/21 08:52:52;;;;;;;14.85;13.15;;;20.30;99.90;;;;;;5106538;27;20513;-64
2022/08/21 08:55:40;;;;;;;15.95;12.85;;;20.50;99.90;;;;;;5105014;27;20452;-64
2022/08/21 08:58:24;;;;;;;16.30;13.35;;;20.70;99.90;;;;;;5099614;27;20545;-64
2022/08/21 09:00:53;;;;;;;17.83;14.80;;;20.30;99.90;;;;;;5111203;27;20325;-63
2022/08/21 09:03:23;;;;;;;15.27;13.43;;;20.30;99.90;;;;;;5104153;27;20050;-64
2022/08/21 09:06:00;;;;;;;18.25;14.52;;;20.30;99.90;;;;;;5102502;27;20078;-64
2022/08/21 09:08:27;;;;;;;17.85;14.80;;;20.30;99.90;;;;;;5102867;27;20056;-63
2022/08/21 09:11:01;;;;;;;17.15;14.52;;;20.30;99.90;;;;;;5107175;27;20047;-63
2022/08/21 09:14:07;;;;;;;16.10;13.57;;;20.20;99.90;;;;;;5104157;27;20120;-64
2022/08/21 09:16:40;;;;;;;19.98;15.65;;;20.40;99.90;;;;;;5111906;27;20498;-64
2022/08/21 09:19:34;;;;;;;17.85;14.73;;;20.20;99.90;;;;;;5099636;27;20039;-64
2022/08/21 09:22:16;;;;;;;16.35;13.40;;;20.30;99.90;;;;;;5109539;27;20166;-62
2022/08/21 09:24:47;;;;;;;;;;;20.80;99.90;;;;;;5100473;27;20040;-63
2022/08/21 09:27:20;;;;;;;13.82;12.10;;;21.10;99.90;;;;;;5102185;27;19966;-65
2022/08/21 09:29:51;;;;;;;15.73;13.05;;;21.40;99.90;;;;;;5115898;27;20495;-64
2022/08/21 09:32:22;;;;;;;13.97;11.67;;;21.40;99.90;;;;;;5109997;27;20048;-65
2022/08/21 09:35:16;;;;;;;14.13;12.65;;;21.50;99.90;;;;;;5108610;27;20745;-63
2022/08/21 09:38:06;;;;;;;14.17;12.67;;;21.70;99.90;;;;;;5106014;27;20039;-63
2022/08/21 09:40:45;;;;;;;13.15;11.68;;;21.80;99.90;;;;;;5120330;27;20797;-64
2022/08/21 09:43:19;;;;;;;15.80;12.20;;;21.60;99.90;;;;;;5114024;27;20064;-63
2022/08/21 09:45:49;;;;;;;14.18;12.10;;;21.80;99.90;;;;;;5116167;27;20103;-63
2022/08/21 09:48:25;;;;;;;12.65;11.15;;;22.20;99.90;;;;;;5099976;27;20187;-64
2022/08/21 09:51:11;;;;;;;15.05;12.68;;;22.30;99.90;;;;;;5105647;28;20524;-64
2022/08/21 09:53:47;;;;;;;14.57;13.00;;;22.10;99.90;;;;;;5111434;27;20447;-64
2022/08/21 09:59:30;;;;;;;15.20;13.60;;;22.80;99.90;;;;;;5112069;27;20055;-64
2022/08/21 10:02:25;;;;;;;13.38;10.93;;;22.60;99.90;;;;;;5106773;27;20127;-63
2022/08/21 10:04:55;;;;;;;13.75;12.25;;;23.20;99.90;;;;;;5100337;28;20607;-63
2022/08/21 10:07:26;;;;;;;14.63;13.07;;;23.30;99.90;;;;;;5121275;27;20632;-64
2022/08/21 10:10:03;;;;;;;13.37;11.97;;;23.40;99.90;;;;;;5096731;27;20454;-64
2022/08/21 10:12:39;;;;;;;16.67;14.27;;;23.40;99.90;;;;;;5109273;27;20372;-64
2022/08/21 10:15:44;;;;;;;13.80;12.25;;;23.60;99.90;;;;;;5106912;27;20039;-64
2022/08/21 10:18:20;;;;;;;12.88;11.48;;;23.80;99.90;;;;;;5061040;28;20490;-64
2022/08/21 10:21:03;;;;;;;16.88;15.18;;;24.10;99.90;;;;;;5063546;28;20294;-64
2022/08/21 10:23:37;;;;;;;13.23;11.93;;;24.00;99.90;;;;;;5052825;28;20515;-64
2022/08/21 10:26:35;;;;;;;13.30;11.07;;;23.80;99.90;;;;;;5040031;28;20053;-63
2022/08/21 10:29:25;;;;;;;12.73;11.05;;;23.40;99.90;;;;;;5043748;28;20351;-64
2022/08/21 10:32:07;;;;;;;23.67;21.13;;;23.70;99.90;;;;;;5057815;28;20128;-64
2022/08/21 10:35:14;;;;;;;15.77;14.07;;;23.70;99.90;;;;;;5039434;28;20045;-64
2022/08/21 10:38:04;;;;;;;13.88;12.48;;;23.70;99.90;;;;;;5052814;28;20128;-65
2022/08/21 10:40:44;;;;;;;12.73;10.95;;;23.70;99.90;;;;;;5035477;28;20053;-64
2022/08/21 10:43:46;;;;;;;16.17;13.82;;;24.00;99.90;;;;;;5035581;28;20052;-64
2022/08/21 10:46:33;;;;;;;13.65;11.98;;;24.00;99.90;;;;;;5051514;28;20056;-64
2022/08/21 10:49:37;;;;;;;12.50;11.20;;;23.90;99.90;;;;;;5054725;28;20396;-64
2022/08/21 10:52:25;;;;;;;12.20;10.60;;;23.80;99.90;;;;;;5059456;28;20070;-64
2022/08/21 10:55:06;;;;;;;13.48;11.70;;;24.20;99.90;;;;;;5075796;27;20038;-63
2022/08/21 10:57:49;;;;;;;13.27;11.87;;;24.30;99.90;;;;;;5107564;27;20581;-64
2022/08/21 11:00:23;;;;;;;11.55;10.38;;;24.60;99.90;;;;;;5113706;27;20320;-64
2022/08/21 11:03:07;;;;;;;13.00;11.30;;;24.80;99.90;;;;;;5110631;27;20099;-64
2022/08/21 11:05:42;;;;;;;12.90;11.52;;;24.70;99.90;;;;;;5102065;27;20042;-64
2022/08/21 11:08:23;;;;;;;14.90;11.18;;;25.00;99.90;;;;;;5116692;27;20046;-64
2022/08/21 11:10:58;;;;;;;10.15;8.70;;;24.90;99.90;;;;;;5105611;27;20075;-65
2022/08/21 11:14:01;;;;;;;12.18;8.95;;;25.30;99.90;;;;;;5090681;27;20040;-66
2022/08/21 11:16:58;;;;;;;10.73;9.63;;;25.70;99.90;;;;;;5091791;27;20770;-66
2022/08/21 11:19:38;;;;;;;9.07;7.88;;;25.30;99.90;;;;;;5112506;27;20036;-67
2022/08/21 11:22:37;;;;;;;9.05;8.10;;;25.80;99.90;;;;;;5122485;27;20079;-67
2022/08/21 11:25:25;;;;;;;8.10;6.82;;;26.10;99.90;;;;;;5090370;28;20383;-67
2022/08/21 11:28:06;;;;;;;7.57;6.82;;;26.50;99.90;;;;;;5114544;27;20429;-67
2022/08/21 11:31:13;;;;;;;7.13;6.43;;;26.90;99.90;;;;;;5110761;27;20454;-68
2022/08/21 11:34:05;;;;;;;7.78;6.97;;;27.60;99.90;;;;;;5112554;27;20118;-67
2022/08/21 11:36:34;;;;;;;6.95;6.00;;;28.10;99.90;;;;;;5102999;28;20055;-66
2022/08/21 11:39:16;;;;;;;7.18;6.47;;;28.60;99.90;;;;;;5120136;27;20035;-68
2022/08/21 11:42:20;;;;;;;7.65;6.85;;;29.20;99.90;;;;;;5117124;28;20096;-64
2022/08/21 11:44:53;;;;;;;11.38;6.07;;;29.40;99.90;;;;;;5100346;28;20109;-65
2022/08/21 11:47:41;;;;;;;7.53;6.70;;;29.80;99.90;;;;;;5101656;28;20070;-65
2022/08/21 11:50:21;;;;;;;7.38;6.68;;;30.00;99.90;;;;;;5100707;28;20052;-65
2022/08/21 11:53:33;;;;;;;7.32;6.63;;;30.30;99.90;;;;;;5080954;28;20052;-65
2022/08/21 11:56:16;;;;;;;6.43;5.70;;;29.90;99.90;;;;;;5101863;28;20059;-66
2022/08/21 11:58:54;;;;;;;6.63;5.93;;;29.20;99.90;;;;;;5097283;28;20047;-65
2022/08/21 12:01:33;;;;;;;6.70;6.00;;;29.70;99.90;;;;;;5093251;28;20044;-65
2022/08/21 12:04:08;;;;;;;7.68;6.30;;;29.50;99.90;;;;;;5092550;27;20478;-66
2022/08/21 12:06:40;;;;;;;6.43;5.82;;;28.90;99.90;;;;;;5091793;28;20405;-67
2022/08/21 12:09:34;;;;;;;6.10;5.50;;;29.70;99.90;;;;;;5075575;28;20557;-66
2022/08/21 12:12:10;;;;;;;6.53;5.72;;;30.70;99.90;;;;;;5091457;28;20093;-65
2022/08/21 12:14:47;;;;;;;7.40;6.35;;;31.00;99.90;;;;;;5093608;28;20132;-64
2022/08/21 12:17:22;;;;;;;6.53;5.93;;;31.20;99.90;;;;;;5088026;28;20150;-66
2022/08/21 12:20:00;;;;;;;7.38;6.30;;;31.10;99.90;;;;;;5093230;28;20040;-66
2022/08/21 12:22:48;;;;;;;7.05;5.95;;;31.30;99.90;;;;;;5089179;28;20039;-65
2022/08/21 12:25:22;;;;;;;6.95;6.35;;;31.30;99.90;;;;;;5096945;27;20044;-67
2022/08/21 12:27:53;;;;;;;7.30;6.60;;;31.90;99.90;;;;;;5098925;27;20044;-66
2022/08/21 12:30:27;;;;;;;;;;;32.30;99.90;;;;;;5097381;27;20166;-68
2022/08/21 12:32:58;;;;;;;7.40;6.70;;;32.70;99.90;;;;;;5094174;28;19928;-68
2022/08/21 12:35:43;;;;;;;7.00;6.22;;;32.50;99.90;;;;;;5099743;27;20032;-64
2022/08/21 12:38:18;;;;;;;7.28;6.22;;;32.40;99.90;;;;;;5096667;27;20363;-65
2022/08/21 12:40:53;;;;;;;7.97;6.25;;;33.10;99.90;;;;;;5096144;27;20043;-67
2022/08/21 12:43:29;;;;;;;7.18;6.57;;;33.70;99.90;;;;;;5092819;27;20312;-65
2022/08/21 12:46:00;;;;;;;7.53;6.82;;;33.70;99.90;;;;;;5093168;27;20509;-67
2022/08/21 12:48:39;;;;;;;7.10;6.40;;;34.00;99.90;;;;;;5099654;27;20502;-65
2022/08/21 12:51:12;;;;;;;7.07;6.40;;;33.80;98.00;;;;;;5100447;27;20044;-67
2022/08/21 12:54:09;;;;;;;6.90;6.20;;;34.00;97.20;;;;;;5101824;28;20294;-66
2022/08/21 12:56:38;;;;;;;7.22;6.53;;;34.40;97.10;;;;;;5095144;27;20058;-66
2022/08/21 12:59:11;;;;;;;6.47;5.95;;;34.90;95.90;;;;;;5115879;27;20100;-67
2022/08/21 13:01:47;;;;;;;6.85;6.15;;;34.60;95.30;;;;;;5116725;27;20062;-65
2022/08/21 13:04:41;;;;;;;7.28;6.47;;;34.40;94.80;;;;;;5108746;27;20052;-66
2022/08/21 13:07:13;;;;;;;6.75;6.15;;;33.60;96.00;;;;;;5099489;27;20035;-65